createdAt,value
2023-01-19T00:00:00.296Z,14.60
2023-01-19T00:02:26.718Z,15.48
2023-01-19T00:04:53.189Z,18.92
2023-01-19T00:07:19.565Z,16.95
2023-01-19T00:09:46.100Z,15.65
2023-01-19T00:12:12.461Z,16.35
2023-01-19T00:14:38.935Z,15.60
2023-01-19T00:17:05.426Z,16.65
2023-01-19T00:19:32.064Z,16.27
2023-01-19T00:21:58.425Z,18.27
2023-01-19T00:24:24.826Z,19.58
2023-01-19T00:26:51.318Z,20.17
2023-01-19T00:29:17.765Z,14.77
2023-01-19T00:31:44.629Z,8.23
2023-01-19T00:34:11.196Z,7.75
2023-01-19T00:36:37.636Z,9.68
2023-01-19T00:39:04.249Z,6.43
2023-01-19T00:41:49.414Z,8.40
2023-01-19T00:44:15.785Z,6.15
2023-01-19T00:46:42.221Z,11.38
2023-01-19T00:49:09.084Z,12.98
2023-01-19T00:51:35.450Z,13.05
2023-01-19T00:54:04.936Z,14.30
2023-01-19T00:56:32.255Z,15.75
2023-01-19T00:58:58.647Z,15.68
2023-01-19T01:01:45.283Z,11.60
2023-01-19T01:04:13.667Z,12.98
2023-01-19T01:06:40.335Z,21.92
2023-01-19T01:09:11.874Z,11.85
2023-01-19T01:11:42.553Z,16.20
2023-01-19T01:14:11.465Z,14.90
2023-01-19T01:16:38.310Z,14.43
2023-01-19T01:19:04.914Z,15.18
2023-01-19T01:21:31.628Z,19.42
2023-01-19T01:23:58.043Z,15.05
2023-01-19T01:26:26.970Z,14.35
2023-01-19T01:28:53.505Z,11.23
2023-01-19T01:31:20.078Z,9.65
2023-01-19T01:33:46.583Z,9.63
2023-01-19T01:36:13.000Z,10.35
2023-01-19T01:38:40.804Z,9.10
2023-01-19T01:41:08.223Z,12.70
2023-01-19T01:43:54.040Z,7.20
2023-01-19T01:46:20.752Z,7.47
2023-01-19T01:48:57.054Z,9.38
2023-01-19T01:51:37.458Z,8.90
2023-01-19T01:54:18.932Z,7.07
2023-01-19T01:56:48.137Z,4.80
2023-01-19T01:59:25.655Z,6.07
2023-01-19T02:04:43.289Z,4.70
2023-01-19T02:07:32.750Z,4.72
2023-01-19T02:10:17.543Z,5.68
2023-01-19T02:13:03.153Z,3.78
2023-01-19T02:15:29.820Z,6.07
2023-01-19T02:17:58.404Z,4.35
2023-01-19T02:20:28.417Z,4.03
2023-01-19T02:22:56.995Z,5.32
2023-01-19T02:25:25.176Z,4.68
2023-01-19T02:27:52.825Z,4.18
2023-01-19T02:30:19.752Z,5.20
2023-01-19T02:32:46.301Z,2.53
2023-01-19T02:35:12.981Z,3.67
2023-01-19T02:37:41.381Z,3.35
2023-01-19T02:40:15.211Z,6.38
2023-01-19T02:42:54.052Z,2.63
2023-01-19T02:45:22.609Z,2.17
2023-01-19T02:47:51.437Z,6.38
2023-01-19T02:50:37.403Z,6.70
2023-01-19T02:53:21.237Z,1.45
2023-01-19T02:58:34.305Z,3.05
2023-01-19T03:01:16.527Z,5.43
2023-01-19T03:03:56.011Z,2.65
2023-01-19T03:06:42.986Z,4.68
2023-01-19T03:09:29.439Z,8.98
2023-01-19T03:12:14.131Z,3.10
2023-01-19T03:14:46.156Z,2.47
2023-01-19T03:17:14.938Z,3.08
2023-01-19T03:19:43.482Z,3.55
2023-01-19T03:22:17.616Z,2.08
2023-01-19T03:24:47.764Z,3.35
2023-01-19T03:27:40.770Z,0.82
2023-01-19T03:30:18.593Z,1.08
2023-01-19T03:32:50.660Z,2.45
2023-01-19T03:35:19.576Z,3.10
2023-01-19T03:37:50.593Z,2.10
2023-01-19T03:40:17.398Z,2.50
2023-01-19T03:42:44.914Z,5.55
2023-01-19T03:45:13.085Z,2.65
2023-01-19T03:47:40.046Z,3.08
2023-01-19T03:50:13.769Z,2.63
2023-01-19T03:52:40.118Z,1.52
2023-01-19T03:55:07.050Z,1.30
2023-01-19T03:57:33.467Z,1.55
2023-01-19T03:59:59.988Z,2.85
2023-01-19T04:02:26.492Z,3.13
2023-01-19T04:04:52.900Z,2.72
2023-01-19T04:07:19.391Z,6.65
2023-01-19T04:09:45.953Z,2.28
2023-01-19T04:12:12.306Z,1.70
2023-01-19T04:14:38.668Z,4.53
2023-01-19T04:17:05.042Z,4.63
2023-01-19T04:19:31.737Z,4.18
2023-01-19T04:21:58.194Z,2.30
2023-01-19T04:24:24.597Z,1.35
2023-01-19T04:26:53.227Z,3.15
2023-01-19T04:29:19.711Z,5.55
2023-01-19T04:31:46.062Z,4.95
2023-01-19T04:34:12.459Z,2.50
2023-01-19T04:36:38.821Z,1.70
2023-01-19T04:39:05.189Z,4.10
2023-01-19T04:41:31.787Z,3.50
2023-01-19T04:43:58.211Z,3.22
2023-01-19T04:46:24.816Z,4.25
2023-01-19T04:48:54.034Z,7.72
2023-01-19T04:51:20.660Z,6.38
2023-01-19T04:53:47.062Z,3.53
2023-01-19T04:56:13.507Z,2.78
2023-01-19T04:58:40.105Z,4.43
2023-01-19T05:01:09.708Z,3.47
2023-01-19T05:03:36.200Z,2.97
2023-01-19T05:06:02.649Z,5.43
2023-01-19T05:08:29.174Z,1.25
2023-01-19T05:10:57.569Z,1.60
2023-01-19T05:13:24.080Z,2.17
2023-01-19T05:15:50.604Z,2.85
2023-01-19T05:18:17.294Z,7.32
2023-01-19T05:20:43.860Z,5.47
2023-01-19T05:23:10.385Z,7.43
2023-01-19T05:25:36.826Z,4.85
2023-01-19T05:28:03.953Z,5.45
2023-01-19T05:30:30.517Z,6.55
2023-01-19T05:32:56.909Z,5.28
2023-01-19T05:35:35.317Z,6.57
2023-01-19T05:38:02.460Z,3.33
2023-01-19T05:40:28.933Z,8.35
2023-01-19T05:42:55.357Z,9.73
2023-01-19T05:45:21.907Z,5.97
2023-01-19T05:47:48.250Z,9.93
2023-01-19T05:50:14.909Z,6.97
2023-01-19T05:52:41.432Z,9.77
2023-01-19T05:55:08.310Z,4.25
2023-01-19T05:57:34.964Z,5.03
2023-01-19T06:00:01.438Z,8.55
2023-01-19T06:02:30.076Z,5.78
2023-01-19T06:04:56.902Z,7.03
2023-01-19T06:07:25.118Z,2.63
2023-01-19T06:09:52.024Z,7.30
2023-01-19T06:12:18.568Z,6.22
2023-01-19T06:14:45.246Z,4.93
2023-01-19T06:17:11.605Z,10.48
2023-01-19T06:19:38.006Z,6.40
2023-01-19T06:22:04.380Z,7.50
2023-01-19T06:24:30.732Z,8.32
2023-01-19T06:26:57.199Z,9.38
2023-01-19T06:29:23.923Z,4.72
2023-01-19T06:31:50.487Z,7.70
2023-01-19T06:34:16.879Z,7.60
2023-01-19T06:36:43.289Z,6.65
2023-01-19T06:39:10.539Z,8.48
2023-01-19T06:41:36.903Z,9.02
2023-01-19T06:44:03.425Z,4.95
2023-01-19T06:46:32.216Z,8.77
2023-01-19T06:48:58.577Z,7.45
2023-01-19T06:51:25.520Z,6.72
2023-01-19T06:53:51.966Z,8.23
2023-01-19T06:56:18.604Z,4.68
2023-01-19T06:58:47.633Z,11.07
2023-01-19T07:01:14.445Z,10.85
2023-01-19T07:03:40.892Z,7.15
2023-01-19T07:06:07.515Z,7.32
2023-01-19T07:08:35.392Z,17.98
2023-01-19T07:11:25.180Z,6.47
2023-01-19T07:13:54.441Z,7.60
2023-01-19T07:16:20.934Z,4.80
2023-01-19T07:18:48.453Z,5.95
2023-01-19T07:21:15.372Z,10.50
2023-01-19T07:23:43.237Z,5.95
2023-01-19T07:26:10.244Z,4.63
2023-01-19T07:28:37.254Z,6.75
2023-01-19T07:31:04.032Z,7.22
2023-01-19T07:33:30.639Z,10.10
2023-01-19T07:35:57.329Z,9.55
2023-01-19T07:38:23.747Z,9.95
2023-01-19T07:40:50.282Z,9.48
2023-01-19T07:43:17.038Z,7.13
2023-01-19T07:45:44.876Z,6.15
2023-01-19T07:48:11.501Z,14.45
2023-01-19T07:50:38.055Z,10.95
2023-01-19T07:53:05.925Z,18.30
2023-01-19T07:55:32.636Z,12.70
2023-01-19T07:57:59.071Z,10.27
2023-01-19T08:00:25.877Z,8.57
2023-01-19T08:02:53.766Z,8.27
2023-01-19T08:05:20.915Z,13.77
2023-01-19T08:07:48.289Z,5.47
2023-01-19T08:10:16.304Z,12.38
2023-01-19T08:12:42.992Z,5.32
2023-01-19T08:15:10.562Z,10.20
2023-01-19T08:17:37.086Z,17.63
2023-01-19T08:20:03.982Z,10.60
2023-01-19T08:22:30.471Z,8.20
2023-01-19T08:24:56.833Z,10.07
2023-01-19T08:27:23.229Z,12.32
2023-01-19T08:29:49.777Z,8.80
2023-01-19T08:32:16.481Z,7.57
2023-01-19T08:34:42.999Z,8.00
2023-01-19T08:37:09.513Z,11.80
2023-01-19T08:39:36.037Z,9.57
2023-01-19T08:42:02.598Z,9.63
2023-01-19T08:44:28.991Z,10.65
2023-01-19T08:46:55.418Z,14.02
2023-01-19T08:49:21.992Z,9.73
2023-01-19T08:51:48.990Z,9.90
2023-01-19T08:54:18.523Z,13.00
2023-01-19T08:56:45.161Z,10.38
2023-01-19T08:59:13.068Z,10.45
2023-01-19T09:01:41.303Z,10.60
2023-01-19T09:04:07.895Z,9.32
2023-01-19T09:06:34.425Z,7.15
2023-01-19T09:09:00.980Z,11.23
2023-01-19T09:11:27.677Z,9.00
2023-01-19T09:13:54.209Z,6.47
2023-01-19T09:16:20.788Z,7.97
2023-01-19T09:18:47.203Z,9.50
2023-01-19T09:21:15.039Z,8.32
2023-01-19T09:23:41.473Z,7.53
2023-01-19T09:26:07.832Z,3.80
2023-01-19T09:28:34.619Z,7.45
2023-01-19T09:31:06.242Z,8.05
2023-01-19T09:33:33.133Z,9.38
2023-01-19T09:35:59.679Z,10.20
2023-01-19T09:38:26.953Z,5.50
2023-01-19T09:40:55.954Z,9.90
2023-01-19T09:43:49.518Z,6.38
2023-01-19T09:46:29.948Z,6.88
2023-01-19T09:48:59.671Z,6.05
2023-01-19T09:51:28.666Z,6.60
2023-01-19T09:54:16.692Z,13.63
2023-01-19T09:56:45.217Z,6.53
2023-01-19T09:59:20.276Z,9.55
2023-01-19T10:02:14.527Z,5.00
2023-01-19T10:05:05.027Z,8.57
2023-01-19T10:08:03.910Z,4.68
2023-01-19T10:10:40.323Z,10.30
2023-01-19T10:13:29.107Z,5.00
2023-01-19T10:16:20.350Z,8.63
2023-01-19T10:18:54.808Z,7.32
2023-01-19T10:21:33.491Z,8.50
2023-01-19T10:24:23.140Z,11.38
2023-01-19T10:26:56.812Z,9.68
2023-01-19T10:29:38.490Z,9.57
2023-01-19T10:32:19.689Z,10.40
2023-01-19T10:34:47.589Z,6.68
2023-01-19T10:37:18.307Z,7.32
2023-01-19T10:39:54.164Z,8.00
2023-01-19T10:42:20.813Z,8.20
2023-01-19T10:44:47.249Z,4.57
2023-01-19T10:47:19.026Z,4.55
2023-01-19T10:49:47.063Z,6.65
2023-01-19T10:52:33.950Z,2.92
2023-01-19T10:55:03.062Z,8.05
2023-01-19T10:57:39.426Z,7.90
2023-01-19T11:00:27.111Z,4.55
2023-01-19T11:02:53.923Z,4.10
2023-01-19T11:05:25.893Z,6.35
2023-01-19T11:07:52.298Z,7.22
2023-01-19T11:10:24.803Z,9.02
2023-01-19T11:13:04.036Z,6.55
2023-01-19T11:15:43.253Z,12.60
2023-01-19T11:18:42.790Z,7.80
2023-01-19T11:21:11.562Z,6.35
2023-01-19T11:23:46.334Z,7.63
2023-01-19T11:26:24.210Z,6.28
2023-01-19T11:28:54.742Z,6.05
2023-01-19T11:31:27.470Z,4.13
2023-01-19T11:33:57.168Z,4.65
2023-01-19T11:36:25.051Z,3.33
2023-01-19T11:38:56.859Z,6.10
2023-01-19T11:41:28.700Z,4.78
2023-01-19T11:43:58.857Z,6.88
2023-01-19T11:46:32.925Z,3.45
2023-01-19T11:49:04.658Z,3.25
2023-01-19T11:51:39.019Z,6.05
2023-01-19T11:54:21.123Z,6.30
2023-01-19T11:56:49.142Z,10.68
2023-01-19T11:59:15.644Z,5.68
2023-01-19T12:01:50.737Z,5.47
2023-01-19T12:04:24.725Z,3.53
2023-01-19T12:06:54.764Z,6.00
2023-01-19T12:09:21.374Z,6.35
2023-01-19T12:11:58.283Z,6.95
2023-01-19T12:14:47.620Z,2.47
2023-01-19T12:17:19.710Z,2.42
2023-01-19T12:19:55.255Z,3.30
2023-01-19T12:22:23.797Z,4.07
2023-01-19T12:25:06.658Z,2.42
2023-01-19T12:27:42.208Z,6.22
2023-01-19T12:30:29.308Z,3.42
2023-01-19T12:33:21.241Z,2.78
2023-01-19T12:36:04.485Z,5.20
2023-01-19T12:38:50.105Z,2.60
2023-01-19T12:41:27.576Z,2.25
2023-01-19T12:44:12.415Z,3.33
2023-01-19T12:46:42.132Z,3.30
2023-01-19T12:49:29.203Z,5.05
2023-01-19T12:52:11.587Z,6.30
2023-01-19T12:54:43.597Z,3.17
2023-01-19T12:57:37.934Z,7.00
2023-01-19T13:00:27.268Z,6.63
2023-01-19T13:03:20.446Z,3.80
2023-01-19T13:05:53.280Z,5.55
2023-01-19T13:08:22.622Z,8.15
2023-01-19T13:11:09.540Z,3.33
2023-01-19T13:13:37.368Z,3.97
2023-01-19T13:16:18.566Z,4.03
2023-01-19T13:18:49.249Z,2.03
2023-01-19T13:21:30.926Z,4.38
2023-01-19T13:24:05.422Z,3.72
2023-01-19T13:26:35.600Z,4.20
2023-01-19T13:29:14.014Z,3.55
2023-01-19T13:31:42.719Z,5.32
2023-01-19T13:34:14.473Z,3.38
2023-01-19T13:36:44.912Z,3.90
2023-01-19T13:39:18.812Z,4.28
2023-01-19T13:41:47.347Z,5.90
2023-01-19T13:44:23.898Z,6.35
2023-01-19T13:46:51.947Z,4.45
2023-01-19T13:49:26.016Z,3.75
2023-01-19T13:52:24.852Z,2.92
2023-01-19T13:55:02.878Z,5.00
2023-01-19T13:57:32.017Z,4.28
2023-01-19T14:00:07.167Z,3.88
2023-01-19T14:02:34.288Z,3.00
2023-01-19T14:05:22.603Z,7.65
2023-01-19T14:08:03.404Z,6.70
2023-01-19T14:10:31.274Z,5.18
2023-01-19T14:13:02.390Z,6.25
2023-01-19T14:18:24.591Z,7.10
2023-01-19T14:21:03.267Z,6.10
2023-01-19T14:23:49.857Z,8.32
2023-01-19T14:26:56.163Z,4.57
2023-01-19T14:29:26.658Z,3.58
2023-01-19T14:32:11.947Z,2.70
2023-01-19T14:34:45.796Z,6.57
2023-01-19T14:37:21.188Z,2.55
2023-01-19T14:39:55.950Z,5.65
2023-01-19T14:42:37.559Z,4.97
2023-01-19T14:45:16.056Z,3.80
2023-01-19T14:47:45.703Z,6.78
2023-01-19T14:50:20.584Z,3.90
2023-01-19T14:52:54.493Z,4.32
2023-01-19T14:55:25.529Z,6.32
2023-01-19T14:57:51.960Z,4.88
2023-01-19T15:00:20.040Z,2.50
2023-01-19T15:02:47.361Z,4.88
2023-01-19T15:05:28.972Z,4.70
2023-01-19T15:07:55.421Z,5.72
2023-01-19T15:10:23.882Z,8.00
2023-01-19T15:12:52.418Z,3.35
2023-01-19T15:15:25.677Z,3.38
2023-01-19T15:17:54.121Z,4.32
2023-01-19T15:20:23.023Z,3.78
2023-01-19T15:22:49.868Z,4.20
2023-01-19T15:25:19.245Z,5.93
2023-01-19T15:27:47.084Z,2.22
2023-01-19T15:30:21.033Z,2.22
2023-01-19T15:32:47.656Z,4.75
2023-01-19T15:35:19.112Z,5.93
2023-01-19T15:37:45.894Z,4.88
2023-01-19T15:40:13.699Z,4.60
2023-01-19T15:42:40.143Z,4.43
2023-01-19T15:45:41.554Z,2.90
2023-01-19T15:48:10.329Z,5.35
2023-01-19T15:50:39.686Z,3.55
2023-01-19T15:53:06.844Z,2.58
2023-01-19T15:55:33.439Z,5.15
2023-01-19T15:58:03.366Z,4.90
2023-01-19T16:00:34.561Z,4.53
2023-01-19T16:05:41.929Z,3.90
2023-01-19T16:08:10.222Z,6.35
2023-01-19T16:10:36.711Z,3.95
2023-01-19T16:13:04.154Z,3.25
2023-01-19T16:15:30.674Z,3.35
2023-01-19T16:17:57.172Z,4.78
2023-01-19T16:20:23.795Z,7.85
2023-01-19T16:22:50.222Z,9.52
2023-01-19T16:25:16.693Z,5.95
2023-01-19T16:27:43.108Z,6.20
2023-01-19T16:30:12.461Z,7.80
2023-01-19T16:32:39.104Z,5.32
2023-01-19T16:35:06.077Z,4.15
2023-01-19T16:37:32.576Z,4.50
2023-01-19T16:39:59.217Z,3.63
2023-01-19T16:42:25.648Z,5.22
2023-01-19T16:44:52.150Z,5.65
2023-01-19T16:47:18.660Z,4.90
2023-01-19T16:49:45.291Z,6.28
2023-01-19T16:52:11.928Z,6.68
2023-01-19T16:54:42.771Z,7.70
2023-01-19T16:57:09.937Z,6.72
2023-01-19T16:59:37.127Z,11.77
2023-01-19T17:02:03.566Z,9.00
2023-01-19T17:04:30.088Z,13.05
2023-01-19T17:06:56.575Z,11.45
2023-01-19T17:09:23.029Z,11.27
2023-01-19T17:11:49.506Z,13.18
2023-01-19T17:14:20.312Z,7.35
2023-01-19T17:16:47.519Z,15.95
2023-01-19T17:19:17.306Z,14.13
2023-01-19T17:21:48.853Z,9.80
2023-01-19T17:24:16.195Z,11.15
2023-01-19T17:26:45.871Z,14.05
2023-01-19T17:29:12.779Z,21.58
2023-01-19T17:31:39.290Z,22.65
2023-01-19T17:34:05.751Z,23.10
2023-01-19T17:36:32.999Z,18.50
2023-01-19T17:39:03.902Z,16.95
2023-01-19T17:41:33.283Z,18.70
2023-01-19T17:44:01.099Z,12.73
2023-01-19T17:46:29.198Z,11.85
2023-01-19T17:48:58.060Z,9.10
2023-01-19T17:51:25.775Z,7.65
2023-01-19T17:53:53.264Z,7.55
2023-01-19T17:56:23.175Z,16.55
2023-01-19T17:58:50.038Z,12.80
2023-01-19T18:01:19.257Z,8.57
2023-01-19T18:03:46.657Z,6.22
2023-01-19T18:06:13.555Z,7.15
2023-01-19T18:08:41.999Z,14.48
2023-01-19T18:11:09.695Z,13.88
2023-01-19T18:13:37.249Z,14.75
2023-01-19T18:16:13.688Z,13.35
2023-01-19T18:18:40.705Z,12.52
2023-01-19T18:21:10.053Z,12.25
2023-01-19T18:23:36.798Z,12.52
2023-01-19T18:26:07.602Z,14.90
2023-01-19T18:28:34.810Z,10.48
2023-01-19T18:31:01.851Z,17.52
2023-01-19T18:33:29.190Z,12.68
2023-01-19T18:35:55.581Z,16.33
2023-01-19T18:38:22.349Z,12.50
2023-01-19T18:40:48.913Z,12.48
2023-01-19T18:43:15.380Z,15.75
2023-01-19T18:45:42.066Z,14.90
2023-01-19T18:48:09.443Z,18.02
2023-01-19T18:50:37.654Z,13.95
2023-01-19T18:53:04.095Z,15.27
2023-01-19T18:55:30.566Z,13.25
2023-01-19T18:57:57.004Z,11.63
2023-01-19T19:00:23.406Z,14.07
2023-01-19T19:02:49.811Z,13.60
2023-01-19T19:05:16.326Z,23.13
2023-01-19T19:07:42.706Z,12.88
2023-01-19T19:10:09.875Z,11.20
2023-01-19T19:12:36.305Z,10.13
2023-01-19T19:15:02.856Z,10.20
2023-01-19T19:17:29.243Z,11.90
2023-01-19T19:19:55.739Z,12.55
2023-01-19T19:22:24.160Z,9.73
2023-01-19T19:24:51.811Z,12.18
2023-01-19T19:27:18.184Z,9.88
2023-01-19T19:29:48.767Z,10.80
2023-01-19T19:32:20.182Z,10.60
2023-01-19T19:37:16.812Z,7.40
2023-01-19T19:39:43.425Z,8.55
2023-01-19T19:42:09.795Z,8.38
2023-01-19T19:44:36.352Z,7.22
2023-01-19T19:47:02.743Z,8.57
2023-01-19T19:49:29.333Z,10.55
2023-01-19T19:51:56.055Z,9.25
2023-01-19T19:54:22.455Z,9.55
2023-01-19T19:56:51.898Z,11.65
2023-01-19T19:59:18.382Z,10.05
2023-01-19T20:01:47.063Z,5.82
2023-01-19T20:04:14.102Z,3.85
2023-01-19T20:06:44.427Z,5.40
2023-01-19T20:09:15.680Z,7.03
2023-01-19T20:14:14.552Z,3.28
2023-01-19T20:16:41.091Z,3.22
2023-01-19T20:19:07.831Z,3.42
2023-01-19T20:21:38.878Z,5.70
2023-01-19T20:24:08.247Z,2.58
2023-01-19T20:26:38.842Z,5.28
2023-01-19T20:29:10.205Z,9.05
2023-01-19T20:31:43.482Z,4.30
2023-01-19T20:34:12.109Z,5.38
2023-01-19T20:36:38.685Z,4.28
2023-01-19T20:39:10.165Z,3.63
2023-01-19T20:41:46.178Z,4.72
2023-01-19T20:44:16.012Z,3.22
2023-01-19T20:46:43.574Z,4.07
2023-01-19T20:49:10.251Z,6.25
2023-01-19T20:51:39.593Z,4.70
2023-01-19T20:54:06.076Z,3.90
2023-01-19T20:56:32.528Z,4.40
2023-01-19T20:58:59.595Z,3.58
2023-01-19T21:01:26.336Z,3.10
2023-01-19T21:03:52.921Z,2.85
2023-01-19T21:06:21.000Z,2.65
2023-01-19T21:08:49.994Z,3.45
2023-01-19T21:11:20.694Z,3.05
2023-01-19T21:13:48.391Z,5.00
2023-01-19T21:16:15.509Z,6.85
2023-01-19T21:18:41.911Z,7.22
2023-01-19T21:21:14.949Z,5.10
2023-01-19T21:23:47.657Z,5.00
2023-01-19T21:26:14.601Z,6.03
2023-01-19T21:28:41.084Z,5.82
2023-01-19T21:31:09.788Z,5.38
2023-01-19T21:33:36.279Z,5.07
2023-01-19T21:36:02.959Z,3.88
2023-01-19T21:38:29.995Z,4.07
2023-01-19T21:40:57.827Z,4.70
2023-01-19T21:43:26.408Z,5.70
2023-01-19T21:45:53.010Z,4.82
2023-01-19T21:48:19.864Z,7.38
2023-01-19T21:50:46.511Z,6.53
2023-01-19T21:53:13.026Z,6.60
2023-01-19T21:55:44.654Z,8.15
2023-01-19T21:58:11.032Z,9.23
2023-01-19T22:00:37.637Z,6.78
2023-01-19T22:03:04.831Z,8.32
2023-01-19T22:05:36.864Z,9.52
2023-01-19T22:08:04.221Z,10.23
2023-01-19T22:10:30.751Z,7.40
2023-01-19T22:12:57.126Z,10.38
2023-01-19T22:15:23.548Z,8.13
2023-01-19T22:17:49.999Z,9.85
2023-01-19T22:20:16.883Z,11.55
2023-01-19T22:22:43.439Z,8.23
2023-01-19T22:25:10.232Z,11.45
2023-01-19T22:27:37.436Z,10.68
2023-01-19T22:30:04.354Z,12.45
2023-01-19T22:32:31.298Z,11.45
2023-01-19T22:34:57.742Z,11.80
2023-01-19T22:37:24.209Z,11.40
2023-01-19T22:39:50.829Z,10.52
2023-01-19T22:42:17.233Z,11.15
2023-01-19T22:44:43.719Z,9.00
2023-01-19T22:47:10.172Z,12.98
2023-01-19T22:49:36.769Z,10.63
2023-01-19T22:52:03.420Z,8.82
2023-01-19T22:54:30.234Z,10.23
2023-01-19T22:56:56.635Z,11.52
2023-01-19T22:59:23.106Z,11.93
2023-01-19T23:01:49.893Z,10.55
2023-01-19T23:04:16.407Z,10.63
2023-01-19T23:06:43.320Z,11.65
2023-01-19T23:09:14.123Z,11.48
2023-01-19T23:11:43.121Z,9.48
2023-01-19T23:14:15.122Z,10.73
2023-01-19T23:16:41.653Z,11.25
2023-01-19T23:19:08.236Z,10.75
2023-01-19T23:21:34.750Z,9.30
2023-01-19T23:24:03.515Z,10.93
2023-01-19T23:26:30.839Z,10.88
2023-01-19T23:29:01.670Z,11.10
2023-01-19T23:31:29.460Z,10.13
2023-01-19T23:33:58.006Z,9.88
2023-01-19T23:36:26.774Z,9.25
2023-01-19T23:38:56.099Z,9.05
2023-01-19T23:41:23.897Z,11.63
2023-01-19T23:43:51.092Z,10.50
2023-01-19T23:46:18.812Z,8.50
2023-01-19T23:48:45.934Z,9.48
2023-01-19T23:51:15.294Z,8.93
2023-01-19T23:53:41.829Z,8.98
2023-01-19T23:56:18.253Z,10.18
2023-01-19T23:58:46.490Z,8.10
